createdAt,value
2018-06-25T00:02:28.543Z,54.85
2018-06-25T00:04:58.022Z,55.05
2018-06-25T00:07:28.395Z,55.74
2018-06-25T00:09:57.995Z,55.11
2018-06-25T00:12:28.231Z,55.30
2018-06-25T00:14:58.123Z,55.76
2018-06-25T00:17:28.123Z,55.68
2018-06-25T00:19:57.725Z,55.62
2018-06-25T00:22:27.351Z,55.36
2018-06-25T00:24:57.555Z,56.04
2018-06-25T00:27:27.503Z,56.03
2018-06-25T00:29:57.201Z,56.07
2018-06-25T00:32:26.997Z,55.89
2018-06-25T00:34:56.805Z,56.17
2018-06-25T00:37:26.871Z,57.01
2018-06-25T00:39:56.742Z,56.75
2018-06-25T00:42:26.696Z,56.93
2018-06-25T00:44:56.493Z,56.12
2018-06-25T00:47:26.104Z,56.13
2018-06-25T00:49:56.020Z,56.38
2018-06-25T00:52:25.565Z,56.13
2018-06-25T00:54:55.318Z,55.94
2018-06-25T00:57:25.359Z,56.15
2018-06-25T00:59:56.503Z,56.79
2018-06-25T01:02:26.411Z,56.71
2018-06-25T01:04:56.271Z,56.72
2018-06-25T01:07:26.463Z,57.66
2018-06-25T01:09:56.287Z,58.05
2018-06-25T01:12:26.459Z,57.80
2018-06-25T01:14:56.235Z,57.36
2018-06-25T01:17:25.851Z,57.96
2018-06-25T01:19:55.786Z,58.23
2018-06-25T01:22:25.283Z,57.03
2018-06-25T01:24:54.883Z,55.84
2018-06-25T01:27:24.887Z,56.15
2018-06-25T01:29:54.847Z,55.09
2018-06-25T01:32:25.006Z,54.12
2018-06-25T01:34:54.742Z,54.53
2018-06-25T01:37:24.890Z,55.96
2018-06-25T01:39:54.696Z,54.67
2018-06-25T01:42:24.626Z,55.25
2018-06-25T01:44:54.492Z,55.72
2018-06-25T01:47:24.024Z,55.13
2018-06-25T01:49:53.870Z,56.24
2018-06-25T01:52:23.807Z,56.26
2018-06-25T01:54:54.016Z,56.44
2018-06-25T01:57:23.946Z,57.23
2018-06-25T01:59:54.179Z,57.35
2018-06-25T02:02:23.926Z,57.55
2018-06-25T02:04:53.918Z,57.96
2018-06-25T02:07:23.845Z,59.30
2018-06-25T02:09:54.228Z,61.35
2018-06-25T02:12:24.203Z,62.89
2018-06-25T02:14:54.126Z,64.03
2018-06-25T02:17:23.641Z,63.61
2018-06-25T02:19:53.224Z,64.01
2018-06-25T02:22:23.235Z,63.97
2018-06-25T02:24:53.197Z,63.91
2018-06-25T02:27:23.037Z,63.96
2018-06-25T02:29:52.503Z,64.02
2018-06-25T02:32:22.135Z,64.17
2018-06-25T02:34:52.074Z,64.61
2018-06-25T02:37:21.881Z,64.69
2018-06-25T02:39:51.376Z,65.16
2018-06-25T02:42:21.329Z,65.72
2018-06-25T02:44:50.856Z,65.96
2018-06-25T02:47:20.509Z,66.27
2018-06-25T02:49:50.703Z,65.75
2018-06-25T02:52:20.907Z,66.63
2018-06-25T02:54:50.778Z,66.66
2018-06-25T02:57:21.022Z,66.57
2018-06-25T02:59:50.809Z,66.48
2018-06-25T03:02:21.163Z,66.29
2018-06-25T03:04:51.153Z,65.73
2018-06-25T03:07:21.047Z,65.92
2018-06-25T03:09:51.295Z,65.29
2018-06-25T03:12:20.974Z,66.45
2018-06-25T03:14:50.531Z,65.90
2018-06-25T03:17:20.545Z,65.88
2018-06-25T03:19:50.036Z,66.01
2018-06-25T03:22:19.632Z,66.42
2018-06-25T03:24:49.432Z,66.42
2018-06-25T03:27:19.462Z,66.32
2018-06-25T03:29:49.435Z,66.41
2018-06-25T03:32:19.340Z,66.04
2018-06-25T03:34:49.641Z,66.23
2018-06-25T03:37:19.371Z,65.92
2018-06-25T03:39:49.267Z,65.58
2018-06-25T03:42:19.144Z,65.87
2018-06-25T03:44:48.792Z,65.06
2018-06-25T03:47:18.510Z,64.76
2018-06-25T03:49:48.398Z,64.22
2018-06-25T03:52:18.668Z,63.93
2018-06-25T03:54:48.279Z,63.63
2018-06-25T03:57:18.384Z,64.21
2018-06-25T03:59:47.970Z,62.76
2018-06-25T04:02:17.763Z,61.53
2018-06-25T04:04:47.929Z,61.58
2018-06-25T04:07:17.733Z,61.06
2018-06-25T04:09:47.421Z,61.68
2018-06-25T04:12:17.374Z,61.31
2018-06-25T04:14:46.907Z,61.39
2018-06-25T04:17:16.642Z,61.35
2018-06-25T04:19:46.474Z,62.18
2018-06-25T04:22:16.186Z,62.21
2018-06-25T04:24:46.487Z,62.07
2018-06-25T04:27:16.333Z,61.82
2018-06-25T04:29:46.229Z,62.09
2018-06-25T04:32:16.267Z,62.19
2018-06-25T04:34:45.911Z,61.65
2018-06-25T04:37:15.894Z,60.99
2018-06-25T04:39:45.476Z,60.72
2018-06-25T04:42:15.265Z,60.77
2018-06-25T04:44:44.943Z,60.28
2018-06-25T04:47:14.543Z,60.13
2018-06-25T04:49:44.175Z,59.95
2018-06-25T04:52:14.468Z,59.81
2018-06-25T04:54:44.169Z,59.68
2018-06-25T04:57:14.097Z,59.51
2018-06-25T04:59:43.889Z,58.48
2018-06-25T05:02:14.217Z,58.82
2018-06-25T05:04:43.926Z,58.57
2018-06-25T05:07:13.651Z,58.16
2018-06-25T05:09:43.661Z,57.71
2018-06-25T05:12:13.247Z,57.44
2018-06-25T05:14:43.128Z,57.19
2018-06-25T05:17:12.661Z,56.49
2018-06-25T05:19:42.725Z,56.48
2018-06-25T05:22:12.951Z,56.43
2018-06-25T05:24:43.044Z,56.37
2018-06-25T05:27:12.658Z,55.73
2018-06-25T05:29:42.380Z,55.50
2018-06-25T05:32:12.268Z,55.16
2018-06-25T05:34:42.410Z,54.51
2018-06-25T05:37:12.399Z,54.45
2018-06-25T05:39:42.231Z,54.27
2018-06-25T05:42:16.251Z,53.18
2018-06-25T05:44:45.997Z,52.62
2018-06-25T05:47:15.771Z,52.77
2018-06-25T05:49:46.087Z,51.72
2018-06-25T05:52:16.011Z,51.93
2018-06-25T05:54:45.831Z,51.15
2018-06-25T05:57:15.750Z,51.37
2018-06-25T05:59:45.658Z,50.28
2018-06-25T06:02:15.494Z,51.16
2018-06-25T06:04:45.535Z,51.20
2018-06-25T06:07:15.311Z,51.15
2018-06-25T06:09:45.343Z,51.30
2018-06-25T06:12:14.959Z,50.82
2018-06-25T06:14:44.573Z,50.83
2018-06-25T06:17:14.741Z,50.25
2018-06-25T06:19:44.525Z,50.18
2018-06-25T06:22:14.221Z,50.14
2018-06-25T06:24:44.103Z,50.44
2018-06-25T06:27:14.317Z,50.26
2018-06-25T06:29:43.910Z,49.87
2018-06-25T06:32:13.560Z,49.84
2018-06-25T06:34:43.390Z,49.74
2018-06-25T06:37:13.485Z,49.47
2018-06-25T06:39:43.386Z,49.51
2018-06-25T06:42:13.355Z,48.96
2018-06-25T06:44:43.012Z,49.46
2018-06-25T06:47:12.643Z,49.35
2018-06-25T06:49:42.759Z,49.35
2018-06-25T06:52:12.689Z,48.44
2018-06-25T06:54:42.255Z,48.61
2018-06-25T06:57:12.363Z,48.38
2018-06-25T06:59:42.017Z,48.13
2018-06-25T07:02:12.011Z,47.73
2018-06-25T07:04:41.943Z,47.54
2018-06-25T07:07:11.967Z,48.02
2018-06-25T07:09:41.843Z,48.29
2018-06-25T07:12:11.335Z,48.43
2018-06-25T07:14:41.115Z,48.37
2018-06-25T07:17:10.785Z,48.28
2018-06-25T07:19:41.247Z,47.67
2018-06-25T07:22:12.793Z,47.80
2018-06-25T07:24:43.153Z,48.44
2018-06-25T07:27:12.952Z,48.64
2018-06-25T07:29:43.079Z,48.67
2018-06-25T07:32:13.028Z,48.51
2018-06-25T07:34:42.690Z,47.83
2018-06-25T07:37:12.366Z,48.18
2018-06-25T07:39:42.285Z,48.16
2018-06-25T07:42:11.899Z,48.19
2018-06-25T07:44:41.454Z,48.21
2018-06-25T07:47:12.237Z,48.96
2018-06-25T07:49:42.360Z,47.38
2018-06-25T07:52:12.462Z,46.88
2018-06-25T07:54:42.306Z,46.94
2018-06-25T07:57:12.033Z,46.05
2018-06-25T07:59:42.031Z,45.58
2018-06-25T08:02:11.768Z,44.50
2018-06-25T08:04:41.372Z,43.78
2018-06-25T08:07:11.419Z,43.18
2018-06-25T08:09:41.087Z,42.79
2018-06-25T08:12:10.850Z,42.21
2018-06-25T08:14:40.783Z,41.35
2018-06-25T08:17:10.507Z,42.08
2018-06-25T08:19:40.318Z,42.00
2018-06-25T08:22:10.132Z,41.31
2018-06-25T08:24:39.830Z,40.94
2018-06-25T08:27:10.138Z,41.46
2018-06-25T08:29:39.955Z,40.52
2018-06-25T08:32:10.892Z,40.78
2018-06-25T08:34:40.837Z,40.34
2018-06-25T08:37:10.620Z,40.39
2018-06-25T08:39:40.576Z,39.90
2018-06-25T08:42:10.198Z,39.68
2018-06-25T08:44:40.141Z,38.70
2018-06-25T08:47:09.682Z,38.94
2018-06-25T08:49:39.336Z,38.37
2018-06-25T08:52:09.325Z,37.71
2018-06-25T08:54:39.251Z,38.15
2018-06-25T08:57:09.690Z,38.47
2018-06-25T08:59:39.418Z,37.99
2018-06-25T09:02:09.356Z,37.00
2018-06-25T09:04:39.014Z,36.32
2018-06-25T09:07:08.916Z,36.23
2018-06-25T09:09:38.862Z,36.52
2018-06-25T09:12:08.504Z,36.33
2018-06-25T09:14:38.090Z,34.70
2018-06-25T09:17:08.586Z,34.90
2018-06-25T09:19:38.300Z,35.96
2018-06-25T09:22:08.126Z,34.63
2018-06-25T09:24:38.159Z,33.84
2018-06-25T09:27:08.091Z,33.80
2018-06-25T09:29:37.659Z,34.51
2018-06-25T09:32:08.152Z,33.59
2018-06-25T09:34:43.167Z,33.90
2018-06-25T09:37:13.178Z,34.40
2018-06-25T09:39:42.883Z,33.98
2018-06-25T09:42:12.899Z,33.44
2018-06-25T09:44:42.767Z,34.18
2018-06-25T09:47:12.659Z,34.22
2018-06-25T09:49:42.757Z,34.16
2018-06-25T09:52:14.076Z,33.91
2018-06-25T09:54:43.928Z,33.88
2018-06-25T09:57:13.885Z,33.16
2018-06-25T09:59:43.505Z,34.05
2018-06-25T10:02:13.654Z,34.20
2018-06-25T10:07:11.962Z,32.84
2018-06-25T10:09:41.917Z,32.89
2018-06-25T10:12:11.463Z,32.64
2018-06-25T10:14:41.675Z,32.58
2018-06-25T10:17:11.418Z,32.70
2018-06-25T10:19:41.910Z,31.83
2018-06-25T10:22:11.523Z,31.61
2018-06-25T10:24:41.224Z,31.44
2018-06-25T10:27:11.261Z,31.71
2018-06-25T10:29:41.069Z,30.67
2018-06-25T10:32:11.198Z,30.68
2018-06-25T10:34:40.959Z,30.25
2018-06-25T10:37:10.515Z,30.24
2018-06-25T10:39:40.402Z,29.72
2018-06-25T10:42:10.136Z,30.34
2018-06-25T10:44:40.242Z,30.53
2018-06-25T10:47:10.384Z,30.46
2018-06-25T10:49:40.459Z,30.93
2018-06-25T10:52:10.631Z,30.20
2018-06-25T10:54:40.254Z,29.25
2018-06-25T10:57:10.294Z,28.33
2018-06-25T10:59:40.207Z,29.15
2018-06-25T11:02:10.180Z,28.47
2018-06-25T11:04:39.939Z,27.01
2018-06-25T11:07:10.139Z,28.26
2018-06-25T11:09:39.624Z,27.58
2018-06-25T11:12:09.275Z,27.05
2018-06-25T11:14:39.355Z,27.90
2018-06-25T11:17:09.219Z,26.18
2018-06-25T11:19:39.482Z,26.35
2018-06-25T11:22:09.488Z,26.75
2018-06-25T11:24:39.429Z,27.27
2018-06-25T11:27:09.390Z,27.10
2018-06-25T11:29:38.994Z,26.20
2018-06-25T11:32:09.090Z,25.61
2018-06-25T11:34:39.428Z,24.56
2018-06-25T11:37:09.187Z,25.39
2018-06-25T11:39:38.742Z,25.49
2018-06-25T11:42:08.727Z,25.21
2018-06-25T11:44:38.319Z,24.91
2018-06-25T11:47:08.067Z,25.38
2018-06-25T11:49:38.167Z,25.24
2018-06-25T11:52:08.147Z,26.36
2018-06-25T11:54:38.046Z,25.87
2018-06-25T11:57:07.771Z,24.97
2018-06-25T11:59:38.303Z,24.88
2018-06-25T12:02:08.034Z,23.60
2018-06-25T12:04:37.847Z,24.38
2018-06-25T12:07:08.155Z,23.48
2018-06-25T12:09:37.747Z,22.82
2018-06-25T12:12:07.320Z,22.95
2018-06-25T12:14:37.319Z,22.90
2018-06-25T12:17:07.285Z,23.44
2018-06-25T12:19:36.946Z,24.06
2018-06-25T12:22:07.071Z,25.28
2018-06-25T12:24:37.178Z,26.08
2018-06-25T12:27:06.955Z,25.04
2018-06-25T12:29:36.881Z,25.20
2018-06-25T12:32:07.056Z,26.30
2018-06-25T12:34:37.231Z,27.15
2018-06-25T12:37:07.376Z,26.83
2018-06-25T12:39:37.000Z,26.93
2018-06-25T12:42:06.728Z,27.83
2018-06-25T12:44:36.582Z,27.76
2018-06-25T12:47:06.564Z,27.36
2018-06-25T12:49:36.639Z,26.72
2018-06-25T12:52:06.658Z,27.86
2018-06-25T12:54:36.647Z,27.92
2018-06-25T12:57:06.443Z,28.03
2018-06-25T12:59:36.397Z,28.12
2018-06-25T13:02:06.719Z,28.28
2018-06-25T13:04:36.327Z,28.91
2018-06-25T13:07:06.447Z,28.73
2018-06-25T13:09:36.009Z,28.59
2018-06-25T13:12:05.742Z,27.43
2018-06-25T13:14:35.729Z,27.77
2018-06-25T13:17:05.455Z,27.14
2018-06-25T13:19:35.446Z,26.94
2018-06-25T13:22:05.687Z,26.30
2018-06-25T13:24:35.351Z,26.41
2018-06-25T13:27:05.703Z,26.49
2018-06-25T13:29:35.676Z,25.98
2018-06-25T13:32:06.635Z,26.61
2018-06-25T13:34:37.475Z,26.03
2018-06-25T13:37:07.403Z,25.07
2018-06-25T13:39:37.223Z,24.86
2018-06-25T13:42:06.883Z,24.72
2018-06-25T13:44:36.827Z,23.50
2018-06-25T13:47:06.578Z,23.35
2018-06-25T13:49:36.444Z,22.32
2018-06-25T13:52:06.502Z,21.53
2018-06-25T13:54:36.559Z,20.70
2018-06-25T13:57:06.215Z,20.47
2018-06-25T13:59:36.266Z,19.16
2018-06-25T14:02:06.241Z,19.88
2018-06-25T14:04:36.091Z,18.79
2018-06-25T14:07:05.806Z,18.92
2018-06-25T14:09:35.395Z,18.70
2018-06-25T14:12:05.069Z,18.50
2018-06-25T14:14:35.448Z,18.28
2018-06-25T14:17:05.598Z,19.34
2018-06-25T14:19:35.769Z,19.17
2018-06-25T14:22:05.465Z,19.65
2018-06-25T14:24:40.551Z,20.00
2018-06-25T14:27:10.156Z,21.09
2018-06-25T14:29:40.328Z,21.79
2018-06-25T14:32:15.122Z,22.70
2018-06-25T14:34:48.922Z,24.02
2018-06-25T14:37:18.673Z,22.49
2018-06-25T14:39:48.314Z,23.75
2018-06-25T14:42:17.904Z,23.50
2018-06-25T14:44:47.891Z,23.81
2018-06-25T14:47:17.531Z,23.14
2018-06-25T14:49:47.706Z,23.59
2018-06-25T14:52:17.421Z,22.72
2018-06-25T14:54:46.991Z,21.52
2018-06-25T14:57:16.923Z,21.35
2018-06-25T14:59:46.971Z,20.32
2018-06-25T15:02:16.668Z,19.52
2018-06-25T15:04:46.629Z,18.58
2018-06-25T15:07:16.338Z,18.19
2018-06-25T15:09:45.914Z,17.82
2018-06-25T15:12:15.639Z,16.38
2018-06-25T15:14:45.674Z,16.46
2018-06-25T15:17:15.791Z,16.31
2018-06-25T15:19:45.818Z,16.46
2018-06-25T15:22:15.730Z,16.28
2018-06-25T15:24:45.622Z,14.86
2018-06-25T15:27:15.477Z,13.90
2018-06-25T15:29:45.062Z,14.23
2018-06-25T15:32:14.894Z,15.64
2018-06-25T15:34:45.021Z,16.13
2018-06-25T15:37:14.734Z,15.99
2018-06-25T15:39:44.214Z,16.17
2018-06-25T15:42:14.483Z,16.47
2018-06-25T15:44:44.051Z,18.71
2018-06-25T15:47:13.672Z,17.96
2018-06-25T15:49:43.445Z,18.30
2018-06-25T15:52:12.979Z,20.54
2018-06-25T15:54:42.981Z,22.45
2018-06-25T15:57:12.783Z,21.00
2018-06-25T15:59:42.570Z,21.24
2018-06-25T16:02:12.310Z,20.89
2018-06-25T16:04:42.045Z,20.24
2018-06-25T16:07:11.566Z,19.96
2018-06-25T16:09:41.264Z,20.16
2018-06-25T16:12:11.242Z,20.24
2018-06-25T16:14:41.603Z,20.29
2018-06-25T16:17:11.110Z,19.88
2018-06-25T16:19:40.946Z,19.23
2018-06-25T16:22:10.633Z,19.71
2018-06-25T16:24:40.437Z,20.20
2018-06-25T16:27:10.208Z,20.75
2018-06-25T16:29:39.935Z,20.16
2018-06-25T16:32:09.616Z,20.88
2018-06-25T16:34:39.570Z,20.60
2018-06-25T16:37:09.603Z,20.36
2018-06-25T16:39:39.228Z,19.83
2018-06-25T16:42:09.039Z,20.23
2018-06-25T16:44:39.212Z,19.86
2018-06-25T16:47:09.077Z,19.52
2018-06-25T16:49:38.686Z,19.95
2018-06-25T16:52:08.627Z,21.25
2018-06-25T16:54:38.254Z,21.13
2018-06-25T16:57:08.064Z,21.51
2018-06-25T16:59:37.835Z,21.26
2018-06-25T17:02:07.840Z,21.39
2018-06-25T17:04:37.366Z,22.15
2018-06-25T17:07:06.987Z,22.87
2018-06-25T17:09:36.593Z,23.46
2018-06-25T17:12:06.567Z,25.02
2018-06-25T17:14:37.020Z,26.01
2018-06-25T17:17:06.995Z,26.75
2018-06-25T17:19:36.966Z,27.57
2018-06-25T17:22:06.780Z,28.51
2018-06-25T17:24:36.385Z,28.96
2018-06-25T17:27:06.808Z,29.63
2018-06-25T17:29:36.816Z,30.42
2018-06-25T17:32:06.575Z,31.37
2018-06-25T17:34:36.895Z,32.46
2018-06-25T17:37:06.524Z,33.10
2018-06-25T17:39:36.074Z,33.46
2018-06-25T17:42:05.875Z,34.42
2018-06-25T17:44:35.977Z,34.57
2018-06-25T17:47:06.619Z,35.13
2018-06-25T17:49:36.734Z,35.96
2018-06-25T17:52:06.628Z,36.09
2018-06-25T17:54:36.577Z,36.86
2018-06-25T17:57:06.595Z,36.30
2018-06-25T17:59:36.570Z,37.16
2018-06-25T18:02:06.545Z,37.40
2018-06-25T18:04:36.014Z,37.37
2018-06-25T18:07:05.872Z,38.77
2018-06-25T18:09:35.384Z,40.43
2018-06-25T18:12:05.024Z,40.29
2018-06-25T18:14:35.291Z,40.41
2018-06-25T18:17:05.187Z,41.50
2018-06-25T18:19:35.171Z,41.54
2018-06-25T18:22:05.239Z,41.58
2018-06-25T18:24:35.108Z,42.04
2018-06-25T18:27:05.053Z,42.60
2018-06-25T18:29:35.035Z,42.24
2018-06-25T18:32:04.709Z,42.86
2018-06-25T18:34:34.515Z,43.94
2018-06-25T18:37:04.260Z,44.16
2018-06-25T18:39:33.927Z,44.03
2018-06-25T18:42:04.127Z,45.18
2018-06-25T18:44:33.752Z,45.08
2018-06-25T18:47:03.573Z,46.40
2018-06-25T18:49:33.947Z,46.50
2018-06-25T18:52:03.927Z,46.40
2018-06-25T18:54:33.895Z,47.49
2018-06-25T18:57:03.575Z,47.54
2018-06-25T18:59:33.504Z,47.55
2018-06-25T19:02:03.262Z,47.72
2018-06-25T19:04:33.354Z,48.35
2018-06-25T19:07:03.229Z,48.20
2018-06-25T19:09:32.955Z,47.98
2018-06-25T19:12:02.942Z,48.28
2018-06-25T19:14:32.775Z,48.37
2018-06-25T19:17:02.503Z,48.80
2018-06-25T19:19:32.139Z,49.01
2018-06-25T19:22:02.209Z,49.07
2018-06-25T19:24:32.178Z,49.23
2018-06-25T19:27:02.224Z,49.44
2018-06-25T19:29:32.205Z,49.20
2018-06-25T19:32:01.919Z,49.51
2018-06-25T19:34:31.589Z,49.90
2018-06-25T19:37:01.164Z,49.78
2018-06-25T19:39:30.743Z,50.34
2018-06-25T19:42:00.609Z,50.57
2018-06-25T19:44:30.337Z,50.68
2018-06-25T19:47:00.296Z,50.83
2018-06-25T19:49:30.155Z,51.23
2018-06-25T19:52:00.151Z,51.11
2018-06-25T19:54:30.162Z,51.20
2018-06-25T19:56:59.803Z,51.31
2018-06-25T19:59:29.444Z,51.60
2018-06-25T20:01:59.476Z,51.85
2018-06-25T20:04:29.133Z,51.97
2018-06-25T20:06:58.691Z,52.30
2018-06-25T20:09:28.261Z,52.48
2018-06-25T20:11:58.310Z,52.68
2018-06-25T20:14:28.175Z,52.73
2018-06-25T20:16:58.697Z,53.22
2018-06-25T20:19:28.821Z,53.25
2018-06-25T20:21:58.714Z,52.85
2018-06-25T20:24:28.854Z,52.55
2018-06-25T20:26:58.849Z,52.59
2018-06-25T20:29:28.780Z,52.63
2018-06-25T20:31:58.732Z,52.50
2018-06-25T20:34:28.443Z,52.09
2018-06-25T20:36:58.059Z,52.21
2018-06-25T20:39:27.578Z,52.40
2018-06-25T20:41:57.330Z,51.80
2018-06-25T20:44:27.180Z,52.07
2018-06-25T20:46:56.894Z,51.96
2018-06-25T20:49:26.711Z,52.06
2018-06-25T20:51:56.870Z,52.00
2018-06-25T20:54:26.475Z,51.76
2018-06-25T20:56:56.277Z,51.92
2018-06-25T20:59:26.313Z,52.01
2018-06-25T21:01:56.140Z,51.50
2018-06-25T21:04:26.024Z,51.42
2018-06-25T21:06:55.668Z,51.50
2018-06-25T21:09:25.315Z,51.25
2018-06-25T21:11:55.173Z,51.02
2018-06-25T21:14:25.159Z,51.02
2018-06-25T21:16:55.102Z,50.94
2018-06-25T21:19:24.891Z,50.99
2018-06-25T21:21:55.051Z,50.45
2018-06-25T21:24:24.574Z,50.42
2018-06-25T21:26:54.254Z,50.54
2018-06-25T21:29:24.063Z,50.68
2018-06-25T21:31:53.866Z,50.59
2018-06-25T21:34:23.590Z,50.41
2018-06-25T21:36:53.290Z,50.45
2018-06-25T21:39:22.868Z,50.06
2018-06-25T21:41:52.722Z,50.05
2018-06-25T21:44:22.490Z,50.26
2018-06-25T21:46:52.556Z,49.84
2018-06-25T21:49:22.399Z,49.70
2018-06-25T21:51:52.267Z,49.88
2018-06-25T21:54:22.048Z,49.86
2018-06-25T21:56:51.795Z,49.95
2018-06-25T21:59:21.762Z,49.65
2018-06-25T22:01:52.712Z,49.66
2018-06-25T22:04:22.376Z,49.66
2018-06-25T22:06:51.989Z,49.52
2018-06-25T22:09:21.512Z,49.41
2018-06-25T22:11:51.547Z,49.40
2018-06-25T22:14:21.132Z,49.87
2018-06-25T22:16:51.126Z,49.42
2018-06-25T22:19:20.986Z,49.46
2018-06-25T22:21:50.750Z,49.54
2018-06-25T22:24:20.562Z,49.25
2018-06-25T22:26:50.351Z,49.56
2018-06-25T22:29:20.190Z,49.69
2018-06-25T22:31:50.011Z,48.83
2018-06-25T22:34:19.921Z,48.99
2018-06-25T22:36:49.520Z,49.07
2018-06-25T22:39:19.241Z,48.96
2018-06-25T22:41:49.192Z,48.86
2018-06-25T22:44:18.963Z,48.90
2018-06-25T22:46:48.713Z,49.10
2018-06-25T22:49:18.596Z,48.93
2018-06-25T22:51:48.240Z,48.58
2018-06-25T22:54:18.126Z,49.15
2018-06-25T22:56:47.804Z,49.38
2018-06-25T22:59:17.489Z,48.77
2018-06-25T23:01:47.499Z,49.31
2018-06-25T23:04:17.407Z,49.60
2018-06-25T23:06:46.944Z,49.91
2018-06-25T23:09:16.698Z,49.94
2018-06-25T23:11:46.647Z,50.13
2018-06-25T23:14:16.528Z,50.11
2018-06-25T23:16:46.402Z,49.66
2018-06-25T23:19:16.161Z,49.09
2018-06-25T23:21:45.835Z,49.24
2018-06-25T23:24:15.504Z,49.59
2018-06-25T23:26:45.433Z,49.71
2018-06-25T23:29:15.374Z,49.47
2018-06-25T23:31:45.069Z,50.04
2018-06-25T23:34:14.714Z,50.52
2018-06-25T23:36:44.382Z,50.34
2018-06-25T23:39:14.004Z,50.49
2018-06-25T23:41:43.955Z,51.03
2018-06-25T23:44:13.623Z,51.31
2018-06-25T23:46:43.480Z,50.77
2018-06-25T23:49:13.218Z,50.77
2018-06-25T23:51:43.015Z,51.36
2018-06-25T23:54:12.719Z,51.21
2018-06-25T23:56:42.470Z,51.25
2018-06-25T23:59:12.235Z,51.71
